Ronse, Belgium
Current Conditions -  °F | °C
As of 2:25 AM on Monday 24 Nov 2014 (Local Time) from EBCV Reporting Station
Broken Clouds Broken Clouds  
Wind Chill: 48°   Ceiling: 1200
Heat Index: 48°   Visibility: 6mi
Dew Point: 48°   Wind: 3mph
Humidity: 100%   Direction: 310°NW
Pressure: 30.12"   Gusts: NA
Location:  50.75°N, 3.6°E
Report Text: EBCV 240125Z AUTO 31003KT 9999 FEW007/// SCT009/// BKN012/// 09/09 Q1020 GRN
Loading
Personal Weather Stations






























Interactive Weather Map New forecast layout! Learn more

10-Day Weather Forecast

Advertisements
Track Severe Weather on mobile